createdAt,value
2016-07-30T00:00:20.655Z,19.71
2016-07-30T00:01:20.641Z,19.67
2016-07-30T00:02:21.318Z,19.7
2016-07-30T00:03:20.603Z,19.64
2016-07-30T00:04:20.586Z,19.67
2016-07-30T00:05:20.564Z,19.64
2016-07-30T00:06:20.544Z,19.58
2016-07-30T00:07:20.527Z,19.64
2016-07-30T00:08:20.507Z,19.58
2016-07-30T00:09:20.492Z,19.51
2016-07-30T00:10:20.471Z,19.55
2016-07-30T00:11:20.449Z,19.56
2016-07-30T00:12:20.442Z,19.51
2016-07-30T00:13:20.414Z,19.51
2016-07-30T00:14:20.392Z,19.55
2016-07-30T00:15:20.377Z,19.54
2016-07-30T00:16:20.358Z,19.51
2016-07-30T00:17:20.337Z,19.54
2016-07-30T00:18:20.322Z,19.49
2016-07-30T00:19:20.301Z,19.48
2016-07-30T00:20:20.284Z,19.52
2016-07-30T00:21:20.264Z,19.49
2016-07-30T00:22:20.242Z,19.49
2016-07-30T00:23:20.224Z,19.55
2016-07-30T00:24:20.212Z,19.49
2016-07-30T00:25:20.188Z,19.51
2016-07-30T00:26:20.170Z,19.55
2016-07-30T00:27:20.150Z,19.56
2016-07-30T00:28:20.133Z,19.55
2016-07-30T00:29:20.115Z,19.52
2016-07-30T00:30:20.092Z,19.56
2016-07-30T00:31:20.074Z,19.54
2016-07-30T00:32:20.056Z,19.49
2016-07-30T00:33:20.035Z,19.58
2016-07-30T00:34:20.018Z,19.54
2016-07-30T00:35:20.000Z,19.54
2016-07-30T00:36:19.991Z,19.48
2016-07-30T00:37:19.959Z,19.45
2016-07-30T00:38:19.944Z,19.55
2016-07-30T00:39:19.923Z,19.49
2016-07-30T00:40:19.902Z,19.49
2016-07-30T00:41:19.884Z,19.47
2016-07-30T00:42:19.865Z,19.56
2016-07-30T00:43:19.845Z,19.51
2016-07-30T00:44:19.826Z,19.54
2016-07-30T00:45:19.809Z,19.54
2016-07-30T00:46:19.788Z,19.48
2016-07-30T00:47:19.771Z,19.55
2016-07-30T00:48:19.749Z,19.66
2016-07-30T00:49:19.732Z,19.56
2016-07-30T00:50:19.712Z,19.56
2016-07-30T00:51:19.698Z,19.58
2016-07-30T00:53:19.666Z,19.54
2016-07-30T00:54:19.641Z,19.58
2016-07-30T00:55:19.621Z,19.54
2016-07-30T00:56:19.602Z,19.63
2016-07-30T00:57:19.585Z,19.51
2016-07-30T00:58:19.565Z,19.63
2016-07-30T00:59:19.543Z,19.58
2016-07-30T01:00:19.527Z,19.49
2016-07-30T01:01:19.523Z,19.49
2016-07-30T01:02:19.489Z,19.56
2016-07-30T01:03:19.469Z,19.52
2016-07-30T01:04:19.451Z,19.55
2016-07-30T01:05:19.432Z,19.49
2016-07-30T01:06:19.424Z,19.54
2016-07-30T01:08:19.372Z,19.51
2016-07-30T01:09:19.358Z,19.52
2016-07-30T01:10:19.342Z,19.49
2016-07-30T01:11:19.319Z,19.51
2016-07-30T01:12:19.301Z,19.45
2016-07-30T01:13:19.279Z,19.51
2016-07-30T01:14:19.278Z,19.55
2016-07-30T01:15:19.251Z,19.52
2016-07-30T01:16:19.227Z,19.56
2016-07-30T01:17:19.210Z,19.49
2016-07-30T01:18:19.185Z,19.52
2016-07-30T01:19:19.169Z,19.54
2016-07-30T01:20:19.154Z,19.51
2016-07-30T01:21:19.129Z,19.55
2016-07-30T01:23:19.094Z,19.49
2016-07-30T01:24:19.076Z,19.58
2016-07-30T01:25:19.057Z,19.55
2016-07-30T01:26:19.037Z,19.49
2016-07-30T01:27:19.026Z,19.54
2016-07-30T01:28:19.001Z,19.47
2016-07-30T01:29:18.984Z,19.56
2016-07-30T01:30:18.963Z,19.55
2016-07-30T01:31:18.949Z,19.55
2016-07-30T01:32:18.928Z,19.49
2016-07-30T01:33:18.906Z,19.49
2016-07-30T01:34:18.886Z,19.56
2016-07-30T01:35:18.867Z,19.49
2016-07-30T01:36:18.845Z,19.49
2016-07-30T01:37:18.835Z,19.55
2016-07-30T01:38:18.811Z,19.49
2016-07-30T01:39:18.793Z,19.49
2016-07-30T01:40:18.775Z,19.54
2016-07-30T01:41:18.754Z,19.48
2016-07-30T01:42:18.740Z,19.55
2016-07-30T01:43:18.721Z,19.51
2016-07-30T01:44:18.700Z,19.54
2016-07-30T01:45:18.677Z,19.51
2016-07-30T01:46:18.659Z,19.47
2016-07-30T01:47:18.642Z,19.54
2016-07-30T01:48:18.623Z,19.49
2016-07-30T01:49:18.610Z,19.52
2016-07-30T01:50:18.587Z,19.55
2016-07-30T01:51:18.568Z,19.52
2016-07-30T01:52:18.552Z,19.48
2016-07-30T01:53:18.528Z,19.54
2016-07-30T01:54:18.511Z,19.49
2016-07-30T01:55:18.494Z,19.51
2016-07-30T01:56:18.475Z,19.54
2016-07-30T01:57:18.461Z,19.54
2016-07-30T01:58:18.433Z,19.55
2016-07-30T01:59:18.417Z,19.49
2016-07-30T02:00:18.396Z,19.52
2016-07-30T02:01:18.382Z,19.52
2016-07-30T02:02:18.367Z,19.55
2016-07-30T02:03:18.339Z,19.51
2016-07-30T02:04:18.322Z,19.59
2016-07-30T02:05:18.303Z,19.51
2016-07-30T02:06:18.285Z,19.54
2016-07-30T02:07:18.264Z,19.52
2016-07-30T02:08:18.249Z,19.51
2016-07-30T02:09:18.233Z,19.51
2016-07-30T02:10:18.211Z,19.52
2016-07-30T02:11:18.192Z,19.62
2016-07-30T02:12:18.171Z,19.59
2016-07-30T02:13:18.152Z,19.64
2016-07-30T02:14:18.132Z,19.62
2016-07-30T02:15:18.118Z,19.54
2016-07-30T02:16:18.101Z,19.58
2016-07-30T02:17:18.076Z,19.49
2016-07-30T02:18:18.060Z,19.52
2016-07-30T02:19:18.040Z,19.48
2016-07-30T02:20:18.033Z,19.54
2016-07-30T02:21:18.005Z,19.51
2016-07-30T02:22:17.983Z,19.51
2016-07-30T02:23:17.965Z,19.54
2016-07-30T02:24:17.947Z,19.45
2016-07-30T02:25:17.935Z,19.52
2016-07-30T02:26:17.910Z,19.51
2016-07-30T02:27:17.888Z,19.52
2016-07-30T02:28:17.874Z,19.49
2016-07-30T02:29:17.851Z,19.45
2016-07-30T02:30:17.834Z,19.36
2016-07-30T02:31:17.814Z,19.41
2016-07-30T02:32:18.493Z,19.31
2016-07-30T02:33:17.781Z,19.44
2016-07-30T02:34:17.760Z,19.47
2016-07-30T02:35:17.741Z,19.47
2016-07-30T02:36:17.722Z,19.37
2016-07-30T02:37:17.705Z,19.49
2016-07-30T02:38:17.689Z,19.41
2016-07-30T02:39:17.666Z,19.4
2016-07-30T02:40:17.643Z,19.41
2016-07-30T02:41:17.631Z,19.39
2016-07-30T02:42:17.609Z,19.47
2016-07-30T02:43:17.589Z,19.44
2016-07-30T02:44:17.571Z,19.41
2016-07-30T02:45:17.554Z,19.39
2016-07-30T02:46:17.536Z,19.4
2016-07-30T02:47:17.518Z,19.4
2016-07-30T02:48:17.495Z,19.4
2016-07-30T02:49:17.481Z,19.39
2016-07-30T02:50:17.459Z,19.44
2016-07-30T02:51:17.440Z,19.39
2016-07-30T02:52:17.419Z,19.39
2016-07-30T02:53:17.402Z,19.44
2016-07-30T02:54:17.382Z,19.44
2016-07-30T02:55:17.362Z,19.45
2016-07-30T02:56:17.347Z,19.37
2016-07-30T02:57:17.330Z,19.34
2016-07-30T02:58:17.303Z,19.29
2016-07-30T02:59:17.289Z,19.31
2016-07-30T03:00:17.269Z,19.33
2016-07-30T03:01:17.250Z,19.31
2016-07-30T03:02:17.237Z,19.29
2016-07-30T03:03:17.214Z,19.29
2016-07-30T03:04:17.193Z,19.3
2016-07-30T03:05:17.173Z,19.27
2016-07-30T03:06:17.152Z,19.34
2016-07-30T03:07:17.135Z,19.31
2016-07-30T03:08:17.114Z,19.33
2016-07-30T03:09:17.093Z,19.26
2016-07-30T03:10:17.078Z,19.31
2016-07-30T03:11:17.061Z,19.3
2016-07-30T03:12:17.042Z,19.31
2016-07-30T03:13:17.023Z,19.29
2016-07-30T03:14:17.002Z,19.22
2016-07-30T03:15:16.984Z,19.27
2016-07-30T03:16:16.962Z,19.27
2016-07-30T03:17:16.944Z,19.22
2016-07-30T03:18:16.939Z,19.29
2016-07-30T03:19:16.906Z,19.16
2016-07-30T03:20:16.894Z,19.21
2016-07-30T03:21:16.867Z,19.18
2016-07-30T03:22:16.847Z,19.19
2016-07-30T03:23:16.844Z,19.21
2016-07-30T03:24:16.816Z,19.34
2016-07-30T03:25:16.791Z,19.24
2016-07-30T03:26:16.769Z,19.21
2016-07-30T03:27:16.755Z,19.22
2016-07-30T03:28:16.733Z,19.22
2016-07-30T03:29:16.720Z,19.27
2016-07-30T03:30:16.698Z,19.27
2016-07-30T03:31:16.675Z,19.3
2016-07-30T03:32:16.660Z,19.22
2016-07-30T03:33:16.640Z,19.33
2016-07-30T03:34:16.621Z,19.29
2016-07-30T03:35:16.603Z,19.16
2016-07-30T03:36:16.580Z,19.21
2016-07-30T03:37:16.565Z,19.21
2016-07-30T03:38:16.545Z,19.22
2016-07-30T03:39:16.533Z,19.22
2016-07-30T03:40:16.504Z,19.19
2016-07-30T03:41:16.484Z,19.24
2016-07-30T03:42:16.467Z,19.22
2016-07-30T03:43:16.451Z,19.29
2016-07-30T03:44:16.430Z,19.24
2016-07-30T03:45:16.415Z,19.26
2016-07-30T03:46:16.395Z,19.22
2016-07-30T03:47:16.377Z,19.22
2016-07-30T03:48:16.351Z,19.18
2016-07-30T03:49:16.348Z,19.18
2016-07-30T03:50:16.314Z,19.19
2016-07-30T03:51:16.302Z,19.18
2016-07-30T03:52:16.285Z,19.24
2016-07-30T03:53:16.267Z,19.29
2016-07-30T03:54:16.241Z,19.3
2016-07-30T03:55:16.220Z,19.21
2016-07-30T03:56:16.200Z,19.15
2016-07-30T03:57:16.181Z,19.24
2016-07-30T03:58:16.165Z,19.21
2016-07-30T03:59:16.147Z,19.21
2016-07-30T04:00:16.126Z,19.18
2016-07-30T04:01:16.107Z,19.16
2016-07-30T04:02:16.090Z,19.21
2016-07-30T04:03:16.073Z,19.24
2016-07-30T04:04:16.054Z,19.21
2016-07-30T04:05:16.029Z,19.21
2016-07-30T04:06:16.011Z,19.15
2016-07-30T04:07:15.995Z,19.18
2016-07-30T04:08:15.976Z,19.21
2016-07-30T04:09:15.955Z,19.18
2016-07-30T04:10:15.940Z,19.24
2016-07-30T04:11:15.920Z,19.21
2016-07-30T04:12:15.912Z,19.19
2016-07-30T04:13:15.881Z,19.22
2016-07-30T04:14:15.859Z,19.18
2016-07-30T04:15:15.844Z,19.19
2016-07-30T04:16:15.823Z,19.22
2016-07-30T04:17:15.807Z,19.19
2016-07-30T04:18:15.786Z,19.16
2016-07-30T04:19:15.765Z,19.19
2016-07-30T04:20:15.748Z,19.21
2016-07-30T04:21:15.730Z,19.16
2016-07-30T04:22:15.709Z,19.11
2016-07-30T04:23:15.695Z,19.19
2016-07-30T04:24:15.673Z,19.15
2016-07-30T04:25:15.653Z,19.12
2016-07-30T04:26:15.631Z,19.15
2016-07-30T04:27:15.618Z,19.16
2016-07-30T04:28:15.595Z,19.12
2016-07-30T04:29:15.575Z,19.14
2016-07-30T04:30:15.558Z,19.09
2016-07-30T04:31:15.538Z,19.15
2016-07-30T04:32:15.528Z,19.19
2016-07-30T04:33:15.500Z,19.19
2016-07-30T04:34:15.482Z,19.19
2016-07-30T04:35:15.464Z,19.15
2016-07-30T04:36:15.448Z,19.14
2016-07-30T04:37:15.426Z,19.18
2016-07-30T04:38:15.413Z,19.19
2016-07-30T04:39:15.389Z,19.24
2016-07-30T04:40:15.373Z,19.19
2016-07-30T04:41:15.357Z,19.34
2016-07-30T04:42:15.332Z,19.26
2016-07-30T04:43:15.315Z,19.3
2016-07-30T04:44:15.293Z,19.31
2016-07-30T04:45:15.286Z,19.29
2016-07-30T04:46:15.269Z,19.37
2016-07-30T04:47:15.236Z,19.33
2016-07-30T04:48:15.220Z,19.37
2016-07-30T04:49:15.207Z,19.39
2016-07-30T04:50:15.874Z,19.47
2016-07-30T04:51:15.164Z,19.49
2016-07-30T04:52:15.144Z,19.36
2016-07-30T04:53:15.131Z,19.47
2016-07-30T04:54:15.109Z,19.41
2016-07-30T04:55:15.088Z,19.37
2016-07-30T04:56:15.074Z,19.44
2016-07-30T04:57:15.053Z,19.45
2016-07-30T04:58:15.037Z,19.49
2016-07-30T04:59:15.018Z,19.54
2016-07-30T05:00:14.997Z,19.49
2016-07-30T05:01:14.979Z,19.51
2016-07-30T05:02:14.961Z,19.47
2016-07-30T05:03:14.941Z,19.56
2016-07-30T05:04:14.923Z,19.54
2016-07-30T05:05:14.922Z,19.49
2016-07-30T05:06:14.884Z,19.51
2016-07-30T05:07:15.570Z,19.64
2016-07-30T05:09:14.834Z,19.67
2016-07-30T05:10:14.818Z,19.66
2016-07-30T05:11:14.795Z,19.67
2016-07-30T05:12:14.785Z,19.69
2016-07-30T05:13:14.765Z,19.67
2016-07-30T05:14:14.746Z,19.73
2016-07-30T05:15:14.731Z,19.67
2016-07-30T05:16:14.707Z,19.7
2016-07-30T05:17:14.693Z,19.71
2016-07-30T05:18:14.673Z,19.74
2016-07-30T05:19:14.654Z,19.79
2016-07-30T05:20:14.642Z,19.71
2016-07-30T05:21:14.617Z,19.71
2016-07-30T05:22:14.602Z,19.79
2016-07-30T05:24:14.562Z,19.81
2016-07-30T05:25:14.547Z,19.88
2016-07-30T05:26:14.541Z,19.82
2016-07-30T05:27:14.512Z,19.86
2016-07-30T05:28:14.498Z,19.82
2016-07-30T05:29:14.476Z,19.82
2016-07-30T05:30:14.462Z,19.81
2016-07-30T05:31:14.453Z,19.81
2016-07-30T05:32:14.418Z,19.77
2016-07-30T05:33:14.406Z,19.84
2016-07-30T05:34:14.391Z,19.82
2016-07-30T05:35:14.370Z,19.79
2016-07-30T05:36:14.349Z,19.88
2016-07-30T05:37:14.334Z,19.79
2016-07-30T05:39:14.299Z,19.74
2016-07-30T05:40:14.283Z,19.74
2016-07-30T05:41:14.264Z,19.79
2016-07-30T05:42:14.244Z,19.76
2016-07-30T05:43:14.231Z,19.7
2016-07-30T05:44:14.209Z,19.7
2016-07-30T05:45:14.196Z,19.66
2016-07-30T05:46:14.182Z,19.69
2016-07-30T05:47:14.161Z,19.63
2016-07-30T05:48:14.141Z,19.49
2016-07-30T05:49:14.126Z,19.54
2016-07-30T05:50:14.103Z,19.59
2016-07-30T05:51:14.090Z,19.51
2016-07-30T05:52:14.065Z,19.47
2016-07-30T05:53:14.052Z,19.55
2016-07-30T05:54:14.033Z,19.59
2016-07-30T05:55:14.016Z,19.63
2016-07-30T05:56:13.999Z,19.64
2016-07-30T05:57:13.978Z,19.71
2016-07-30T05:58:13.965Z,19.76
2016-07-30T05:59:13.945Z,19.74
2016-07-30T06:00:13.940Z,19.86
2016-07-30T06:01:13.914Z,19.86
2016-07-30T06:02:13.895Z,19.91
2016-07-30T06:03:13.880Z,19.96
2016-07-30T06:04:13.862Z,19.95
2016-07-30T06:05:13.842Z,19.94
2016-07-30T06:06:13.827Z,20.02
2016-07-30T06:07:13.811Z,20.04
2016-07-30T06:08:13.793Z,20.06
2016-07-30T06:09:13.780Z,20.03
2016-07-30T06:10:13.765Z,19.99
2016-07-30T06:11:13.752Z,19.92
2016-07-30T06:12:13.731Z,19.96
2016-07-30T06:13:13.712Z,20
2016-07-30T06:14:13.697Z,19.95
2016-07-30T06:15:13.677Z,19.96
2016-07-30T06:16:14.357Z,20.06
2016-07-30T06:17:13.649Z,20.16
2016-07-30T06:18:13.631Z,20.18
2016-07-30T06:19:13.613Z,20.14
2016-07-30T06:20:13.613Z,20.19
2016-07-30T06:21:13.590Z,20.29
2016-07-30T06:22:13.566Z,20.16
2016-07-30T06:23:13.550Z,20.29
2016-07-30T06:24:13.532Z,20.43
2016-07-30T06:25:13.525Z,20.39
2016-07-30T06:26:13.503Z,20.41
2016-07-30T06:27:13.486Z,20.43
2016-07-30T06:28:13.478Z,20.58
2016-07-30T06:29:13.475Z,20.58
2016-07-30T06:30:13.451Z,20.55
2016-07-30T06:31:13.429Z,20.63
2016-07-30T06:32:13.414Z,20.77
2016-07-30T06:33:13.395Z,20.77
2016-07-30T06:34:13.383Z,20.75
2016-07-30T06:35:13.372Z,20.72
2016-07-30T06:36:13.357Z,20.85
2016-07-30T06:37:13.337Z,20.87
2016-07-30T06:38:13.322Z,20.9
2016-07-30T06:39:13.306Z,21.03
2016-07-30T06:40:13.296Z,20.95
2016-07-30T06:41:13.280Z,21
2016-07-30T06:42:13.264Z,21.03
2016-07-30T06:43:13.247Z,20.93
2016-07-30T06:44:13.241Z,20.93
2016-07-30T06:45:13.222Z,20.92
2016-07-30T06:46:13.204Z,20.92
2016-07-30T06:47:13.194Z,20.87
2016-07-30T06:48:13.173Z,20.84
2016-07-30T06:49:13.160Z,20.67
2016-07-30T06:50:13.149Z,20.65
2016-07-30T06:51:13.130Z,20.75
2016-07-30T06:52:13.117Z,20.67
2016-07-30T06:53:13.098Z,20.72
2016-07-30T06:54:13.098Z,20.8
2016-07-30T06:55:13.072Z,20.81
2016-07-30T06:56:13.052Z,20.77
2016-07-30T06:57:13.039Z,20.78
2016-07-30T06:58:13.022Z,20.72
2016-07-30T06:59:13.007Z,20.93
2016-07-30T07:00:12.993Z,20.9
2016-07-30T07:01:12.979Z,21.02
2016-07-30T07:02:12.965Z,21.05
2016-07-30T07:03:12.949Z,21.17
2016-07-30T07:04:12.933Z,21.22
2016-07-30T07:05:12.920Z,21.22
2016-07-30T07:06:12.904Z,21.3
2016-07-30T07:07:12.891Z,21.35
2016-07-30T07:08:12.888Z,21.42
2016-07-30T07:09:12.860Z,21.43
2016-07-30T07:10:12.848Z,21.37
2016-07-30T07:11:12.835Z,21.54
2016-07-30T07:12:12.834Z,21.66
2016-07-30T07:13:12.817Z,21.66
2016-07-30T07:14:12.796Z,21.72
2016-07-30T07:15:12.780Z,21.89
2016-07-30T07:16:12.768Z,21.88
2016-07-30T07:17:12.756Z,22.02
2016-07-30T07:18:12.743Z,22.07
2016-07-30T07:19:12.730Z,22.08
2016-07-30T07:20:12.713Z,22.04
2016-07-30T07:21:12.703Z,22.06
2016-07-30T07:22:12.695Z,22.02
2016-07-30T07:23:12.672Z,21.98
2016-07-30T07:24:12.673Z,22.04
2016-07-30T07:25:12.648Z,22.1
2016-07-30T07:26:12.635Z,22.07
2016-07-30T07:27:12.623Z,22.06
2016-07-30T07:28:12.608Z,22.06
2016-07-30T07:29:12.595Z,22.17
2016-07-30T07:30:12.584Z,22.2
2016-07-30T07:31:12.571Z,22.3
2016-07-30T07:32:12.558Z,22.26
2016-07-30T07:33:12.544Z,22.36
2016-07-30T07:34:12.531Z,22.43
2016-07-30T07:35:12.518Z,22.48
2016-07-30T07:36:12.503Z,22.59
2016-07-30T07:37:12.493Z,22.83
2016-07-30T07:38:12.479Z,22.87
2016-07-30T07:39:12.470Z,22.98
2016-07-30T07:40:12.458Z,23.06
2016-07-30T07:41:12.446Z,23.17
2016-07-30T07:42:12.445Z,23.24
2016-07-30T07:43:12.421Z,23.21
2016-07-30T07:44:12.412Z,23.23
2016-07-30T07:45:12.400Z,23.18
2016-07-30T07:46:12.386Z,23.03
2016-07-30T07:47:12.376Z,22.96
2016-07-30T07:48:12.416Z,23.02
2016-07-30T07:49:12.353Z,23.03
2016-07-30T07:50:12.340Z,23.03
2016-07-30T07:51:12.329Z,22.85
2016-07-30T07:52:12.314Z,22.84
2016-07-30T07:53:12.300Z,22.81
2016-07-30T07:54:12.284Z,22.73
2016-07-30T07:55:12.275Z,22.66
2016-07-30T07:56:12.261Z,22.59
2016-07-30T07:57:12.248Z,22.53
2016-07-30T07:58:12.234Z,22.59
2016-07-30T07:59:12.221Z,22.51
2016-07-30T08:00:12.211Z,22.45
2016-07-30T08:01:12.203Z,22.47
2016-07-30T08:02:12.181Z,22.5
2016-07-30T08:03:12.168Z,22.51
2016-07-30T08:04:12.155Z,22.44
2016-07-30T08:05:12.144Z,22.45
2016-07-30T08:06:12.130Z,22.44
2016-07-30T08:07:12.110Z,22.32
2016-07-30T08:08:12.098Z,22.3
2016-07-30T08:09:12.087Z,22.26
2016-07-30T08:10:12.076Z,22.28
2016-07-30T08:11:12.057Z,22.26
2016-07-30T08:12:12.040Z,22.26
2016-07-30T08:13:12.026Z,22.28
2016-07-30T08:14:12.022Z,22.36
2016-07-30T08:15:11.998Z,22.26
2016-07-30T08:16:11.986Z,22.28
2016-07-30T08:17:11.971Z,22.22
2016-07-30T08:18:11.955Z,22.3
2016-07-30T08:19:11.941Z,22.28
2016-07-30T08:20:11.927Z,22.39
2016-07-30T08:21:11.911Z,22.54
2016-07-30T08:22:11.902Z,22.63
2016-07-30T08:23:11.897Z,22.68
2016-07-30T08:24:11.874Z,22.72
2016-07-30T08:25:11.864Z,22.75
2016-07-30T08:26:11.857Z,22.83
2016-07-30T08:27:11.840Z,22.91
2016-07-30T08:28:11.827Z,22.96
2016-07-30T08:29:11.814Z,23.09
2016-07-30T08:30:11.807Z,23.09
2016-07-30T08:31:11.795Z,23.1
2016-07-30T08:32:11.791Z,23.31
2016-07-30T08:33:11.772Z,23.31
2016-07-30T08:34:11.762Z,23.32
2016-07-30T08:35:11.760Z,23.21
2016-07-30T08:36:11.743Z,23.2
2016-07-30T08:37:11.732Z,23.21
2016-07-30T08:38:11.718Z,23.24
2016-07-30T08:39:11.710Z,23.31
2016-07-30T08:40:11.701Z,23.27
2016-07-30T08:41:11.685Z,23.2
2016-07-30T08:42:11.671Z,23.17
2016-07-30T08:43:11.662Z,23.17
2016-07-30T08:44:11.655Z,23.2
2016-07-30T08:45:11.636Z,23.21
2016-07-30T08:46:11.624Z,23.37
2016-07-30T08:47:11.615Z,23.41
2016-07-30T08:48:11.700Z,23.51
2016-07-30T08:49:11.589Z,23.48
2016-07-30T08:50:11.576Z,23.44
2016-07-30T08:51:11.569Z,23.41
2016-07-30T08:52:11.555Z,23.31
2016-07-30T08:53:11.551Z,23.28
2016-07-30T08:54:11.533Z,23.24
2016-07-30T08:55:11.520Z,23.2
2016-07-30T08:56:11.513Z,23.02
2016-07-30T08:57:11.492Z,22.91
2016-07-30T08:58:11.482Z,22.88
2016-07-30T08:59:11.467Z,22.96
2016-07-30T09:00:11.453Z,22.99
2016-07-30T09:01:11.440Z,23.02
2016-07-30T09:02:11.429Z,22.96
2016-07-30T09:03:11.414Z,22.96
2016-07-30T09:04:11.404Z,22.88
2016-07-30T09:05:11.386Z,22.98
2016-07-30T09:06:11.382Z,22.98
2016-07-30T09:07:11.365Z,23.2
2016-07-30T09:08:11.350Z,23.36
2016-07-30T09:09:11.339Z,23.46
2016-07-30T09:10:11.328Z,23.47
2016-07-30T09:11:11.311Z,23.58
2016-07-30T09:12:11.304Z,23.63
2016-07-30T09:13:11.287Z,23.78
2016-07-30T09:14:11.277Z,23.81
2016-07-30T09:15:11.271Z,23.78
2016-07-30T09:16:11.258Z,23.83
2016-07-30T09:17:11.251Z,23.92
2016-07-30T09:18:11.236Z,23.98
2016-07-30T09:19:11.226Z,24.01
2016-07-30T09:20:11.215Z,24.03
2016-07-30T09:21:11.206Z,24.01
2016-07-30T09:22:11.193Z,24.11
2016-07-30T09:23:11.184Z,24.1
2016-07-30T09:25:11.166Z,24.24
2016-07-30T09:26:11.153Z,24.54
2016-07-30T09:27:11.146Z,24.63
2016-07-30T09:28:11.135Z,24.76
2016-07-30T09:29:11.125Z,24.86
2016-07-30T09:30:11.114Z,24.99
2016-07-30T09:31:11.104Z,25.08
2016-07-30T09:32:11.103Z,25.21
2016-07-30T09:33:11.094Z,25.46
2016-07-30T09:34:11.085Z,25.8
2016-07-30T09:35:11.083Z,25.98
2016-07-30T09:36:11.069Z,26.03
2016-07-30T09:37:11.063Z,26.16
2016-07-30T09:38:11.059Z,26.33
2016-07-30T09:39:11.051Z,26.41
2016-07-30T09:40:11.046Z,26.58
2016-07-30T09:41:11.037Z,26.62
2016-07-30T09:42:11.030Z,26.34
2016-07-30T09:43:11.027Z,26.06
2016-07-30T09:44:11.025Z,25.9
2016-07-30T09:45:11.010Z,25.75
2016-07-30T09:46:11.008Z,25.83
2016-07-30T09:47:11.001Z,25.88
2016-07-30T09:48:10.990Z,25.75
2016-07-30T09:49:10.983Z,25.59
2016-07-30T09:50:10.973Z,25.41
2016-07-30T09:51:10.967Z,25.59
2016-07-30T09:52:10.961Z,25.75
2016-07-30T09:53:10.952Z,25.93
2016-07-30T09:54:10.946Z,26.02
2016-07-30T09:55:10.934Z,25.99
2016-07-30T09:56:10.928Z,26.07
2016-07-30T09:57:10.922Z,26.07
2016-07-30T09:58:10.920Z,26.21
2016-07-30T09:59:10.907Z,26.29
2016-07-30T10:00:10.900Z,26.34
2016-07-30T10:01:10.892Z,26.53
2016-07-30T10:02:10.885Z,26.66
2016-07-30T10:03:10.880Z,26.83
2016-07-30T10:04:10.873Z,27.03
2016-07-30T10:05:10.867Z,27.05
2016-07-30T10:06:10.859Z,27.05
2016-07-30T10:07:10.857Z,26.99
2016-07-30T10:08:10.845Z,27.03
2016-07-30T10:09:10.842Z,27.11
2016-07-30T10:10:10.836Z,27.14
2016-07-30T10:11:10.832Z,27.4
2016-07-30T10:12:10.823Z,27.45
2016-07-30T10:13:10.820Z,27.65
2016-07-30T10:14:10.816Z,27.68
2016-07-30T10:15:10.808Z,27.85
2016-07-30T10:16:10.804Z,27.89
2016-07-30T10:17:10.799Z,27.86
2016-07-30T10:18:10.791Z,27.96
2016-07-30T10:19:10.787Z,27.85
2016-07-30T10:20:10.780Z,27.75
2016-07-30T10:21:10.784Z,27.8
2016-07-30T10:22:10.768Z,27.85
2016-07-30T10:23:10.758Z,27.89
2016-07-30T10:24:10.753Z,27.87
2016-07-30T10:25:10.749Z,27.89
2016-07-30T10:26:10.737Z,27.77
2016-07-30T10:27:10.734Z,27.83
2016-07-30T10:28:10.725Z,27.89
2016-07-30T10:29:10.717Z,27.75
2016-07-30T10:30:10.711Z,27.68
2016-07-30T10:31:10.704Z,27.49
2016-07-30T10:32:10.699Z,27.32
2016-07-30T10:33:10.691Z,27.25
2016-07-30T10:34:10.677Z,27.15
2016-07-30T10:35:10.673Z,26.89
2016-07-30T10:36:10.660Z,26.68
2016-07-30T10:37:10.654Z,26.62
2016-07-30T10:38:10.643Z,26.7
2016-07-30T10:39:10.633Z,26.88
2016-07-30T10:40:10.623Z,26.81
2016-07-30T10:41:10.617Z,26.85
2016-07-30T10:42:10.605Z,26.95
2016-07-30T10:43:10.597Z,27.08
2016-07-30T10:44:10.587Z,27.11
2016-07-30T10:45:10.577Z,27.22
2016-07-30T10:46:10.570Z,27.6
2016-07-30T10:47:10.560Z,27.86
2016-07-30T10:48:10.554Z,28.01
2016-07-30T10:49:10.542Z,27.85
2016-07-30T10:50:10.535Z,27.83
2016-07-30T10:51:10.530Z,27.85
2016-07-30T10:52:10.522Z,27.82
2016-07-30T10:53:10.518Z,27.7
2016-07-30T10:54:10.507Z,27.59
2016-07-30T10:55:10.502Z,27.3
2016-07-30T10:56:10.510Z,27.25
2016-07-30T10:57:10.490Z,27.32
2016-07-30T10:58:10.489Z,27.4
2016-07-30T10:59:10.475Z,27.42
2016-07-30T11:00:10.471Z,27.68
2016-07-30T11:01:10.459Z,27.74
2016-07-30T11:02:10.452Z,27.8
2016-07-30T11:03:10.446Z,27.78
2016-07-30T11:04:10.439Z,27.78
2016-07-30T11:05:10.433Z,27.71
2016-07-30T11:06:10.429Z,27.83
2016-07-30T11:07:10.421Z,27.92
2016-07-30T11:08:10.418Z,28
2016-07-30T11:09:10.408Z,28.29
2016-07-30T11:10:10.407Z,28.37
2016-07-30T11:11:10.806Z,28.37
2016-07-30T11:12:10.394Z,28.44
2016-07-30T11:13:10.389Z,28.56
2016-07-30T11:14:10.384Z,28.62
2016-07-30T11:15:10.377Z,28.49
2016-07-30T11:16:10.375Z,28.42
2016-07-30T11:17:10.369Z,28.57
2016-07-30T11:18:10.370Z,28.67
2016-07-30T11:19:10.359Z,28.72
2016-07-30T11:20:10.353Z,28.76
2016-07-30T11:21:10.353Z,28.75
2016-07-30T11:22:10.343Z,28.81
2016-07-30T11:23:10.341Z,28.76
2016-07-30T11:24:10.338Z,28.75
2016-07-30T11:25:10.333Z,28.72
2016-07-30T11:26:10.326Z,28.72
2016-07-30T11:27:10.323Z,28.63
2016-07-30T11:28:10.325Z,28.54
2016-07-30T11:29:10.317Z,28.35
2016-07-30T11:30:10.311Z,28.47
2016-07-30T11:31:10.305Z,28.54
2016-07-30T11:32:10.298Z,28.63
2016-07-30T11:33:10.300Z,28.74
2016-07-30T11:34:10.291Z,28.76
2016-07-30T11:35:10.285Z,28.82
2016-07-30T11:36:10.280Z,28.88
2016-07-30T11:37:10.274Z,28.7
2016-07-30T11:38:10.271Z,28.56
2016-07-30T11:39:10.267Z,28.6
2016-07-30T11:40:10.272Z,28.69
2016-07-30T11:41:10.260Z,28.74
2016-07-30T11:42:10.254Z,28.85
2016-07-30T11:43:10.251Z,28.76
2016-07-30T11:44:10.249Z,28.7
2016-07-30T11:45:10.243Z,28.64
2016-07-30T11:46:10.240Z,28.51
2016-07-30T11:47:10.237Z,28.33
2016-07-30T11:48:10.226Z,28.22
2016-07-30T11:49:10.922Z,27.96
2016-07-30T11:50:10.221Z,27.85
2016-07-30T11:51:10.213Z,27.75
2016-07-30T11:52:10.207Z,27.71
2016-07-30T11:53:10.197Z,27.64
2016-07-30T11:54:10.193Z,27.54
2016-07-30T11:55:10.189Z,27.59
2016-07-30T11:56:10.184Z,27.71
2016-07-30T11:57:10.174Z,27.75
2016-07-30T11:58:10.170Z,27.96
2016-07-30T11:59:10.166Z,27.92
2016-07-30T12:00:10.157Z,27.9
2016-07-30T12:01:10.151Z,27.87
2016-07-30T12:02:10.143Z,28.01
2016-07-30T12:03:10.134Z,28.11
2016-07-30T12:04:10.134Z,28
2016-07-30T12:05:10.124Z,28.01
2016-07-30T12:06:10.118Z,28.22
2016-07-30T12:07:10.111Z,28.26
2016-07-30T12:08:10.102Z,28.23
2016-07-30T12:09:10.098Z,28.19
2016-07-30T12:10:10.091Z,28.33
2016-07-30T12:11:10.087Z,28.54
2016-07-30T12:12:10.078Z,28.42
2016-07-30T12:13:10.076Z,28.52
2016-07-30T12:14:10.064Z,28.44
2016-07-30T12:15:10.059Z,28.45
2016-07-30T12:16:10.746Z,28.45
2016-07-30T12:17:10.060Z,28.52
2016-07-30T12:18:10.042Z,28.54
2016-07-30T12:19:10.042Z,28.41
2016-07-30T12:20:10.029Z,28.47
2016-07-30T12:21:10.023Z,28.37
2016-07-30T12:22:10.017Z,28.35
2016-07-30T12:23:10.008Z,28.08
2016-07-30T12:24:10.009Z,28
2016-07-30T12:25:09.995Z,27.74
2016-07-30T12:26:09.986Z,27.71
2016-07-30T12:27:09.990Z,27.64
2016-07-30T12:28:09.969Z,27.52
2016-07-30T12:29:09.963Z,27.49
2016-07-30T12:30:10.646Z,27.58
2016-07-30T12:31:09.947Z,27.4
2016-07-30T12:32:09.938Z,27.42
2016-07-30T12:33:09.924Z,27.29
2016-07-30T12:34:09.929Z,27.07
2016-07-30T12:35:09.910Z,27.14
2016-07-30T12:36:09.896Z,26.92
2016-07-30T12:37:09.889Z,26.73
2016-07-30T12:38:09.879Z,26.65
2016-07-30T12:39:09.868Z,26.6
2016-07-30T12:40:09.857Z,26.55
2016-07-30T12:41:09.846Z,26.55
2016-07-30T12:42:09.840Z,26.52
2016-07-30T12:43:09.826Z,26.51
2016-07-30T12:44:09.820Z,26.55
2016-07-30T12:45:09.820Z,26.55
2016-07-30T12:46:09.795Z,26.65
2016-07-30T12:47:09.790Z,26.55
2016-07-30T12:48:09.788Z,26.68
2016-07-30T12:49:09.768Z,26.85
2016-07-30T12:50:09.808Z,26.99
2016-07-30T12:51:09.748Z,27.08
2016-07-30T12:52:09.741Z,27.08
2016-07-30T12:53:09.750Z,27.07
2016-07-30T12:54:09.718Z,26.89
2016-07-30T12:55:09.714Z,26.73
2016-07-30T12:56:09.700Z,26.75
2016-07-30T12:57:09.694Z,26.63
2016-07-30T12:58:09.682Z,26.62
2016-07-30T12:59:09.675Z,26.6
2016-07-30T13:00:09.670Z,26.56
2016-07-30T13:01:09.655Z,26.53